sensor_id;sensor_type;location;lat;lon;timestamp;temperature;humidity
13203;DHT22;6666;51.626;7.530;2022-09-17T00:01:31;11.50;99.90
13203;DHT22;6666;51.626;7.530;2022-09-17T00:04:00;11.40;99.90
13203;DHT22;6666;51.626;7.530;2022-09-17T00:06:32;11.40;99.90
13203;DHT22;6666;51.626;7.530;2022-09-17T00:09:01;11.40;99.90
13203;DHT22;6666;51.626;7.530;2022-09-17T00:11:31;11.40;99.90
13203;DHT22;6666;51.626;7.530;2022-09-17T00:14:02;11.40;99.90
13203;DHT22;6666;51.626;7.530;2022-09-17T00:16:34;11.30;99.90
13203;DHT22;6666;51.626;7.530;2022-09-17T00:19:05;11.30;99.90
13203;DHT22;6666;51.626;7.530;2022-09-17T00:21:34;11.30;99.90
13203;DHT22;6666;51.626;7.530;2022-09-17T00:24:03;11.30;99.90
13203;DHT22;6666;51.626;7.530;2022-09-17T00:26:33;11.20;99.90
13203;DHT22;6666;51.626;7.530;2022-09-17T00:29:03;11.30;99.90
13203;DHT22;6666;51.626;7.530;2022-09-17T00:31:34;11.20;99.90
13203;DHT22;6666;51.626;7.530;2022-09-17T00:34:03;11.20;99.90
13203;DHT22;6666;51.626;7.530;2022-09-17T00:36:33;11.20;99.90
13203;DHT22;6666;51.626;7.530;2022-09-17T00:39:03;11.20;99.90
13203;DHT22;6666;51.626;7.530;2022-09-17T00:41:34;11.20;99.90
13203;DHT22;6666;51.626;7.530;2022-09-17T00:47:01;11.10;99.90
13203;DHT22;6666;51.626;7.530;2022-09-17T00:49:30;11.20;99.90
13203;DHT22;6666;51.626;7.530;2022-09-17T00:52:04;11.10;99.90
13203;DHT22;6666;51.626;7.530;2022-09-17T00:54:33;11.10;99.90
13203;DHT22;6666;51.626;7.530;2022-09-17T00:57:02;11.00;99.90
13203;DHT22;6666;51.626;7.530;2022-09-17T00:59:30;11.10;99.90
13203;DHT22;6666;51.626;7.530;2022-09-17T01:02:00;11.10;99.90
13203;DHT22;6666;51.626;7.530;2022-09-17T01:04:29;11.10;99.90
13203;DHT22;6666;51.626;7.530;2022-09-17T01:07:03;11.10;99.90
13203;DHT22;6666;51.626;7.530;2022-09-17T01:09:39;11.10;99.90
13203;DHT22;6666;51.626;7.530;2022-09-17T01:12:20;11.10;99.90
13203;DHT22;6666;51.626;7.530;2022-09-17T01:15:04;11.10;99.90
13203;DHT22;6666;51.626;7.530;2022-09-17T01:17:42;11.00;99.90
13203;DHT22;6666;51.626;7.530;2022-09-17T01:23:43;10.90;99.90
13203;DHT22;6666;51.626;7.530;2022-09-17T01:26:32;10.90;99.90
13203;DHT22;6666;51.626;7.530;2022-09-17T01:29:11;10.80;99.90
13203;DHT22;6666;51.626;7.530;2022-09-17T01:31:47;10.90;99.90
13203;DHT22;6666;51.626;7.530;2022-09-17T01:34:23;10.90;99.90
13203;DHT22;6666;51.626;7.530;2022-09-17T01:37:04;10.90;99.90
13203;DHT22;6666;51.626;7.530;2022-09-17T01:39:43;10.90;99.90
13203;DHT22;6666;51.626;7.530;2022-09-17T01:42:17;10.90;99.90
13203;DHT22;6666;51.626;7.530;2022-09-17T01:44:54;10.80;99.90
13203;DHT22;6666;51.626;7.530;2022-09-17T01:47:28;10.80;99.90
13203;DHT22;6666;51.626;7.530;2022-09-17T01:50:02;10.70;99.90
13203;DHT22;6666;51.626;7.530;2022-09-17T01:52:33;10.60;99.90
13203;DHT22;6666;51.626;7.530;2022-09-17T01:55:05;10.60;99.90
13203;DHT22;6666;51.626;7.530;2022-09-17T01:57:39;10.60;99.90
13203;DHT22;6666;51.626;7.530;2022-09-17T02:00:10;10.50;99.90
13203;DHT22;6666;51.626;7.530;2022-09-17T02:02:44;10.50;99.90
13203;DHT22;6666;51.626;7.530;2022-09-17T02:05:17;10.60;99.90
13203;DHT22;6666;51.626;7.530;2022-09-17T02:07:51;10.60;99.90
13203;DHT22;6666;51.626;7.530;2022-09-17T02:10:24;10.60;99.90
13203;DHT22;6666;51.626;7.530;2022-09-17T02:12:57;10.60;99.90
13203;DHT22;6666;51.626;7.530;2022-09-17T02:15:33;10.60;99.90
13203;DHT22;6666;51.626;7.530;2022-09-17T02:18:06;10.60;99.90
13203;DHT22;6666;51.626;7.530;2022-09-17T02:20:41;10.50;99.90
13203;DHT22;6666;51.626;7.530;2022-09-17T02:23:13;10.50;99.90
13203;DHT22;6666;51.626;7.530;2022-09-17T02:25:49;10.50;99.90
13203;DHT22;6666;51.626;7.530;2022-09-17T02:28:23;10.60;99.90
13203;DHT22;6666;51.626;7.530;2022-09-17T02:30:54;10.60;99.90
13203;DHT22;6666;51.626;7.530;2022-09-17T02:33:25;10.50;99.90
13203;DHT22;6666;51.626;7.530;2022-09-17T02:35:53;10.60;99.90
13203;DHT22;6666;51.626;7.530;2022-09-17T02:38:24;10.50;99.90
13203;DHT22;6666;51.626;7.530;2022-09-17T02:41:00;10.60;99.90
13203;DHT22;6666;51.626;7.530;2022-09-17T02:43:34;10.60;99.90
13203;DHT22;6666;51.626;7.530;2022-09-17T02:46:24;10.50;99.90
13203;DHT22;6666;51.626;7.530;2022-09-17T02:49:14;10.60;99.90
13203;DHT22;6666;51.626;7.530;2022-09-17T02:51:52;10.60;99.90
13203;DHT22;6666;51.626;7.530;2022-09-17T02:54:28;10.60;99.90
13203;DHT22;6666;51.626;7.530;2022-09-17T02:57:05;10.60;99.90
13203;DHT22;6666;51.626;7.530;2022-09-17T02:59:37;10.60;99.90
13203;DHT22;6666;51.626;7.530;2022-09-17T03:02:15;10.60;99.90
13203;DHT22;6666;51.626;7.530;2022-09-17T03:04:48;10.70;99.90
13203;DHT22;6666;51.626;7.530;2022-09-17T03:07:18;10.70;99.90
13203;DHT22;6666;51.626;7.530;2022-09-17T03:09:47;10.70;99.90
13203;DHT22;6666;51.626;7.530;2022-09-17T03:12:16;10.70;99.90
13203;DHT22;6666;51.626;7.530;2022-09-17T03:14:44;10.70;99.90
13203;DHT22;6666;51.626;7.530;2022-09-17T03:17:12;10.70;99.90
13203;DHT22;6666;51.626;7.530;2022-09-17T03:19:40;10.70;99.90
13203;DHT22;6666;51.626;7.530;2022-09-17T03:22:10;10.60;99.90
13203;DHT22;6666;51.626;7.530;2022-09-17T03:24:38;10.60;99.90
13203;DHT22;6666;51.626;7.530;2022-09-17T03:27:06;10.60;99.90
13203;DHT22;6666;51.626;7.530;2022-09-17T03:29:35;10.60;99.90
13203;DHT22;6666;51.626;7.530;2022-09-17T03:32:03;10.50;99.90
13203;DHT22;6666;51.626;7.530;2022-09-17T03:34:32;10.50;99.90
13203;DHT22;6666;51.626;7.530;2022-09-17T03:37:00;10.50;99.90
13203;DHT22;6666;51.626;7.530;2022-09-17T03:39:31;10.50;99.90
13203;DHT22;6666;51.626;7.530;2022-09-17T03:41:59;10.40;99.90
13203;DHT22;6666;51.626;7.530;2022-09-17T03:44:27;10.40;99.90
13203;DHT22;6666;51.626;7.530;2022-09-17T03:46:55;10.50;99.90
13203;DHT22;6666;51.626;7.530;2022-09-17T03:49:24;10.40;99.90
13203;DHT22;6666;51.626;7.530;2022-09-17T03:51:52;10.40;99.90
13203;DHT22;6666;51.626;7.530;2022-09-17T03:54:20;10.50;99.90
13203;DHT22;6666;51.626;7.530;2022-09-17T03:56:50;10.50;99.90
13203;DHT22;6666;51.626;7.530;2022-09-17T03:59:18;10.40;99.90
13203;DHT22;6666;51.626;7.530;2022-09-17T04:01:46;10.50;99.90
13203;DHT22;6666;51.626;7.530;2022-09-17T04:04:14;10.40;99.90
13203;DHT22;6666;51.626;7.530;2022-09-17T04:06:43;10.40;99.90
13203;DHT22;6666;51.626;7.530;2022-09-17T04:09:11;10.40;99.90
13203;DHT22;6666;51.626;7.530;2022-09-17T04:11:39;10.30;99.90
13203;DHT22;6666;51.626;7.530;2022-09-17T04:14:09;10.40;99.90
13203;DHT22;6666;51.626;7.530;2022-09-17T04:16:37;10.40;99.90
13203;DHT22;6666;51.626;7.530;2022-09-17T04:19:05;10.40;99.90
13203;DHT22;6666;51.626;7.530;2022-09-17T04:21:34;10.40;99.90
13203;DHT22;6666;51.626;7.530;2022-09-17T04:24:02;10.40;99.90
13203;DHT22;6666;51.626;7.530;2022-09-17T04:26:31;10.50;99.90
13203;DHT22;6666;51.626;7.530;2022-09-17T04:28:59;10.50;99.90
13203;DHT22;6666;51.626;7.530;2022-09-17T04:31:29;10.50;99.90
13203;DHT22;6666;51.626;7.530;2022-09-17T04:33:57;10.50;99.90
13203;DHT22;6666;51.626;7.530;2022-09-17T04:36:26;10.50;99.90
13203;DHT22;6666;51.626;7.530;2022-09-17T04:38:54;10.50;99.90
13203;DHT22;6666;51.626;7.530;2022-09-17T04:41:22;10.50;99.90
13203;DHT22;6666;51.626;7.530;2022-09-17T04:43:50;10.40;99.90
13203;DHT22;6666;51.626;7.530;2022-09-17T04:46:19;10.50;99.90
13203;DHT22;6666;51.626;7.530;2022-09-17T04:48:48;10.40;99.90
13203;DHT22;6666;51.626;7.530;2022-09-17T04:51:16;10.30;99.90
13203;DHT22;6666;51.626;7.530;2022-09-17T04:53:45;10.40;99.90
13203;DHT22;6666;51.626;7.530;2022-09-17T04:56:13;10.40;99.90
13203;DHT22;6666;51.626;7.530;2022-09-17T04:58:41;10.30;99.90
13203;DHT22;6666;51.626;7.530;2022-09-17T05:01:09;10.40;99.90
13203;DHT22;6666;51.626;7.530;2022-09-17T05:03:39;10.40;99.90
13203;DHT22;6666;51.626;7.530;2022-09-17T05:06:09;10.40;99.90
13203;DHT22;6666;51.626;7.530;2022-09-17T05:08:37;10.40;99.90
13203;DHT22;6666;51.626;7.530;2022-09-17T05:11:05;10.40;99.90
13203;DHT22;6666;51.626;7.530;2022-09-17T05:13:33;10.40;99.90
13203;DHT22;6666;51.626;7.530;2022-09-17T05:16:02;10.50;99.90
13203;DHT22;6666;51.626;7.530;2022-09-17T05:18:30;10.50;99.90
13203;DHT22;6666;51.626;7.530;2022-09-17T05:20:58;10.50;99.90
13203;DHT22;6666;51.626;7.530;2022-09-17T05:23:28;10.40;99.90
13203;DHT22;6666;51.626;7.530;2022-09-17T05:25:57;10.40;99.90
13203;DHT22;6666;51.626;7.530;2022-09-17T05:28:25;10.50;99.90
13203;DHT22;6666;51.626;7.530;2022-09-17T05:30:56;10.50;99.90
13203;DHT22;6666;51.626;7.530;2022-09-17T05:33:25;10.60;99.90
13203;DHT22;6666;51.626;7.530;2022-09-17T05:35:53;10.60;99.90
13203;DHT22;6666;51.626;7.530;2022-09-17T05:38:22;10.70;99.90
13203;DHT22;6666;51.626;7.530;2022-09-17T05:40:52;10.70;99.90
13203;DHT22;6666;51.626;7.530;2022-09-17T05:43:20;10.80;99.90
13203;DHT22;6666;51.626;7.530;2022-09-17T05:45:48;10.90;99.90
13203;DHT22;6666;51.626;7.530;2022-09-17T05:48:16;11.00;99.90
13203;DHT22;6666;51.626;7.530;2022-09-17T05:50:44;10.90;99.90
13203;DHT22;6666;51.626;7.530;2022-09-17T05:53:13;11.00;99.90
13203;DHT22;6666;51.626;7.530;2022-09-17T05:55:42;11.10;99.90
13203;DHT22;6666;51.626;7.530;2022-09-17T05:58:13;11.10;99.90
13203;DHT22;6666;51.626;7.530;2022-09-17T06:00:41;11.10;99.90
13203;DHT22;6666;51.626;7.530;2022-09-17T06:03:11;11.20;99.90
13203;DHT22;6666;51.626;7.530;2022-09-17T06:05:40;11.30;99.90
13203;DHT22;6666;51.626;7.530;2022-09-17T06:08:08;11.40;99.90
13203;DHT22;6666;51.626;7.530;2022-09-17T06:10:37;11.50;99.90
13203;DHT22;6666;51.626;7.530;2022-09-17T06:13:06;11.70;99.90
13203;DHT22;6666;51.626;7.530;2022-09-17T06:15:35;11.70;99.90
13203;DHT22;6666;51.626;7.530;2022-09-17T06:18:04;11.70;99.90
13203;DHT22;6666;51.626;7.530;2022-09-17T06:20:32;11.60;99.90
13203;DHT22;6666;51.626;7.530;2022-09-17T06:23:00;11.50;99.90
13203;DHT22;6666;51.626;7.530;2022-09-17T06:25:28;11.50;99.90
13203;DHT22;6666;51.626;7.530;2022-09-17T06:27:57;11.50;99.90
13203;DHT22;6666;51.626;7.530;2022-09-17T06:30:25;11.50;99.90
13203;DHT22;6666;51.626;7.530;2022-09-17T06:32:56;11.50;99.90
13203;DHT22;6666;51.626;7.530;2022-09-17T06:35:26;11.40;99.90
13203;DHT22;6666;51.626;7.530;2022-09-17T06:37:54;11.40;99.90
13203;DHT22;6666;51.626;7.530;2022-09-17T06:40:22;11.40;99.90
13203;DHT22;6666;51.626;7.530;2022-09-17T06:42:56;11.40;99.90
13203;DHT22;6666;51.626;7.530;2022-09-17T06:45:24;11.40;99.90
13203;DHT22;6666;51.626;7.530;2022-09-17T06:47:52;11.40;99.90
13203;DHT22;6666;51.626;7.530;2022-09-17T06:50:22;11.40;99.90
13203;DHT22;6666;51.626;7.530;2022-09-17T06:52:52;11.40;99.90
13203;DHT22;6666;51.626;7.530;2022-09-17T06:55:21;11.40;99.90
13203;DHT22;6666;51.626;7.530;2022-09-17T06:57:49;11.40;99.90
13203;DHT22;6666;51.626;7.530;2022-09-17T07:00:17;11.40;99.90
13203;DHT22;6666;51.626;7.530;2022-09-17T07:02:54;11.60;99.90
13203;DHT22;6666;51.626;7.530;2022-09-17T07:05:26;11.70;99.90
13203;DHT22;6666;51.626;7.530;2022-09-17T07:07:54;11.70;99.90
13203;DHT22;6666;51.626;7.530;2022-09-17T07:10:23;11.80;99.90
13203;DHT22;6666;51.626;7.530;2022-09-17T07:12:52;11.90;99.90
13203;DHT22;6666;51.626;7.530;2022-09-17T07:15:21;11.90;99.90
13203;DHT22;6666;51.626;7.530;2022-09-17T07:17:50;12.00;99.90
13203;DHT22;6666;51.626;7.530;2022-09-17T07:20:19;12.00;99.90
13203;DHT22;6666;51.626;7.530;2022-09-17T07:22:55;12.10;99.90
13203;DHT22;6666;51.626;7.530;2022-09-17T07:25:24;12.00;99.90
13203;DHT22;6666;51.626;7.530;2022-09-17T07:27:53;12.10;99.90
13203;DHT22;6666;51.626;7.530;2022-09-17T07:30:22;12.40;99.90
13203;DHT22;6666;51.626;7.530;2022-09-17T07:32:51;12.60;99.90
13203;DHT22;6666;51.626;7.530;2022-09-17T07:35:19;12.70;99.90
13203;DHT22;6666;51.626;7.530;2022-09-17T07:37:47;12.60;99.90
13203;DHT22;6666;51.626;7.530;2022-09-17T07:40:17;12.50;99.90
13203;DHT22;6666;51.626;7.530;2022-09-17T07:42:45;12.50;99.90
13203;DHT22;6666;51.626;7.530;2022-09-17T07:45:14;12.50;99.90
13203;DHT22;6666;51.626;7.530;2022-09-17T07:47:42;12.50;99.90
13203;DHT22;6666;51.626;7.530;2022-09-17T07:50:10;12.40;99.90
13203;DHT22;6666;51.626;7.530;2022-09-17T07:52:44;12.30;99.90
13203;DHT22;6666;51.626;7.530;2022-09-17T07:55:13;12.30;99.90
13203;DHT22;6666;51.626;7.530;2022-09-17T07:57:50;12.30;99.90
13203;DHT22;6666;51.626;7.530;2022-09-17T08:00:18;12.30;99.90
13203;DHT22;6666;51.626;7.530;2022-09-17T08:02:52;12.40;99.90
13203;DHT22;6666;51.626;7.530;2022-09-17T08:05:20;12.50;99.90
13203;DHT22;6666;51.626;7.530;2022-09-17T08:07:49;12.50;99.90
13203;DHT22;6666;51.626;7.530;2022-09-17T08:10:18;12.50;99.90
13203;DHT22;6666;51.626;7.530;2022-09-17T08:12:49;12.60;99.90
13203;DHT22;6666;51.626;7.530;2022-09-17T08:15:18;12.70;99.90
13203;DHT22;6666;51.626;7.530;2022-09-17T08:17:46;12.70;99.90
13203;DHT22;6666;51.626;7.530;2022-09-17T08:20:15;12.70;99.90
13203;DHT22;6666;51.626;7.530;2022-09-17T08:22:44;12.90;99.90
13203;DHT22;6666;51.626;7.530;2022-09-17T08:25:16;12.90;99.90
13203;DHT22;6666;51.626;7.530;2022-09-17T08:27:44;12.90;99.90
13203;DHT22;6666;51.626;7.530;2022-09-17T08:30:14;13.00;99.90
13203;DHT22;6666;51.626;7.530;2022-09-17T08:32:42;13.00;99.90
13203;DHT22;6666;51.626;7.530;2022-09-17T08:35:10;13.10;99.90
13203;DHT22;6666;51.626;7.530;2022-09-17T08:37:39;13.20;99.90
13203;DHT22;6666;51.626;7.530;2022-09-17T08:40:11;13.10;99.90
13203;DHT22;6666;51.626;7.530;2022-09-17T08:42:50;13.10;99.90
13203;DHT22;6666;51.626;7.530;2022-09-17T08:45:21;13.20;99.90
13203;DHT22;6666;51.626;7.530;2022-09-17T08:47:50;13.10;99.90
13203;DHT22;6666;51.626;7.530;2022-09-17T08:50:25;13.20;99.90
13203;DHT22;6666;51.626;7.530;2022-09-17T08:53:22;13.10;99.90
13203;DHT22;6666;51.626;7.530;2022-09-17T08:55:58;13.20;99.90
13203;DHT22;6666;51.626;7.530;2022-09-17T08:58:43;13.50;99.90
13203;DHT22;6666;51.626;7.530;2022-09-17T09:01:26;13.70;99.90
13203;DHT22;6666;51.626;7.530;2022-09-17T09:04:07;13.90;99.90
13203;DHT22;6666;51.626;7.530;2022-09-17T09:06:45;13.80;99.90
13203;DHT22;6666;51.626;7.530;2022-09-17T09:09:15;13.80;99.90
13203;DHT22;6666;51.626;7.530;2022-09-17T09:11:45;13.80;99.90
13203;DHT22;6666;51.626;7.530;2022-09-17T09:14:18;13.80;99.90
13203;DHT22;6666;51.626;7.530;2022-09-17T09:16:50;13.80;99.90
13203;DHT22;6666;51.626;7.530;2022-09-17T09:19:21;13.70;99.90
13203;DHT22;6666;51.626;7.530;2022-09-17T09:21:59;13.50;99.90
13203;DHT22;6666;51.626;7.530;2022-09-17T09:24:35;13.60;99.90
13203;DHT22;6666;51.626;7.530;2022-09-17T09:27:15;13.80;99.90
13203;DHT22;6666;51.626;7.530;2022-09-17T09:29:53;14.10;99.90
13203;DHT22;6666;51.626;7.530;2022-09-17T09:32:41;13.80;99.90
13203;DHT22;6666;51.626;7.530;2022-09-17T09:35:16;13.80;99.90
13203;DHT22;6666;51.626;7.530;2022-09-17T09:37:51;13.90;99.90
13203;DHT22;6666;51.626;7.530;2022-09-17T09:40:34;14.20;99.90
13203;DHT22;6666;51.626;7.530;2022-09-17T09:43:11;14.00;99.90
13203;DHT22;6666;51.626;7.530;2022-09-17T09:46:04;14.00;99.90
13203;DHT22;6666;51.626;7.530;2022-09-17T09:48:40;14.10;99.90
13203;DHT22;6666;51.626;7.530;2022-09-17T09:51:20;14.50;99.90
13203;DHT22;6666;51.626;7.530;2022-09-17T09:54:05;14.50;99.90
13203;DHT22;6666;51.626;7.530;2022-09-17T09:56:46;14.20;99.90
13203;DHT22;6666;51.626;7.530;2022-09-17T09:59:18;14.30;99.90
13203;DHT22;6666;51.626;7.530;2022-09-17T10:01:46;14.30;99.90
13203;DHT22;6666;51.626;7.530;2022-09-17T10:04:19;14.50;99.90
13203;DHT22;6666;51.626;7.530;2022-09-17T10:06:50;14.70;99.90
13203;DHT22;6666;51.626;7.530;2022-09-17T10:09:20;14.60;99.90
13203;DHT22;6666;51.626;7.530;2022-09-17T10:12:03;14.70;99.90
13203;DHT22;6666;51.626;7.530;2022-09-17T10:14:33;14.80;99.90
13203;DHT22;6666;51.626;7.530;2022-09-17T10:17:19;15.00;99.90
13203;DHT22;6666;51.626;7.530;2022-09-17T10:20:13;15.00;99.90
13203;DHT22;6666;51.626;7.530;2022-09-17T10:22:48;15.00;99.90
13203;DHT22;6666;51.626;7.530;2022-09-17T10:25:26;14.70;99.90
13203;DHT22;6666;51.626;7.530;2022-09-17T10:27:56;14.60;99.90
13203;DHT22;6666;51.626;7.530;2022-09-17T10:30:25;14.60;99.90
13203;DHT22;6666;51.626;7.530;2022-09-17T10:33:10;14.70;99.90
13203;DHT22;6666;51.626;7.530;2022-09-17T10:35:54;14.70;99.90
13203;DHT22;6666;51.626;7.530;2022-09-17T10:38:27;14.90;99.90
13203;DHT22;6666;51.626;7.530;2022-09-17T10:41:13;15.20;99.90
13203;DHT22;6666;51.626;7.530;2022-09-17T10:43:41;15.40;99.90
13203;DHT22;6666;51.626;7.530;2022-09-17T10:46:14;15.30;99.90
13203;DHT22;6666;51.626;7.530;2022-09-17T10:48:45;14.90;99.90
13203;DHT22;6666;51.626;7.530;2022-09-17T10:51:24;14.60;99.90
13203;DHT22;6666;51.626;7.530;2022-09-17T10:54:07;14.10;99.90
13203;DHT22;6666;51.626;7.530;2022-09-17T10:56:45;13.90;99.90
13203;DHT22;6666;51.626;7.530;2022-09-17T11:05:39;13.70;99.90
13203;DHT22;6666;51.626;7.530;2022-09-17T11:08:16;13.80;99.90
13203;DHT22;6666;51.626;7.530;2022-09-17T11:10:55;13.80;99.90
13203;DHT22;6666;51.626;7.530;2022-09-17T11:13:31;13.90;99.90
13203;DHT22;6666;51.626;7.530;2022-09-17T11:16:13;14.00;99.90
13203;DHT22;6666;51.626;7.530;2022-09-17T11:18:43;14.00;99.90
13203;DHT22;6666;51.626;7.530;2022-09-17T11:21:40;14.10;99.90
13203;DHT22;6666;51.626;7.530;2022-09-17T11:24:34;14.10;99.90
13203;DHT22;6666;51.626;7.530;2022-09-17T11:30:04;14.10;99.90
13203;DHT22;6666;51.626;7.530;2022-09-17T11:35:32;14.20;99.90
13203;DHT22;6666;51.626;7.530;2022-09-17T11:38:05;14.40;99.90
13203;DHT22;6666;51.626;7.530;2022-09-17T11:40:40;14.60;99.90
13203;DHT22;6666;51.626;7.530;2022-09-17T11:43:19;14.70;99.90
13203;DHT22;6666;51.626;7.530;2022-09-17T11:45:57;14.90;99.90
13203;DHT22;6666;51.626;7.530;2022-09-17T11:48:31;14.80;99.90
13203;DHT22;6666;51.626;7.530;2022-09-17T11:51:07;14.50;99.90
13203;DHT22;6666;51.626;7.530;2022-09-17T11:53:41;14.20;99.90
13203;DHT22;6666;51.626;7.530;2022-09-17T11:56:16;14.00;99.90
13203;DHT22;6666;51.626;7.530;2022-09-17T11:58:50;13.60;99.90
13203;DHT22;6666;51.626;7.530;2022-09-17T12:01:25;13.30;99.90
13203;DHT22;6666;51.626;7.530;2022-09-17T12:03:57;13.20;99.90
13203;DHT22;6666;51.626;7.530;2022-09-17T12:06:34;13.10;99.90
13203;DHT22;6666;51.626;7.530;2022-09-17T12:09:08;13.30;99.90
13203;DHT22;6666;51.626;7.530;2022-09-17T12:11:44;13.40;99.90
13203;DHT22;6666;51.626;7.530;2022-09-17T12:14:19;13.60;99.90
13203;DHT22;6666;51.626;7.530;2022-09-17T12:16:52;13.80;99.90
13203;DHT22;6666;51.626;7.530;2022-09-17T12:19:27;14.00;99.90
13203;DHT22;6666;51.626;7.530;2022-09-17T12:22:03;14.10;99.90
13203;DHT22;6666;51.626;7.530;2022-09-17T12:24:32;14.20;99.90
13203;DHT22;6666;51.626;7.530;2022-09-17T12:27:16;14.30;99.90
13203;DHT22;6666;51.626;7.530;2022-09-17T12:30:07;14.30;99.90
13203;DHT22;6666;51.626;7.530;2022-09-17T12:36:11;14.60;99.90
13203;DHT22;6666;51.626;7.530;2022-09-17T12:39:01;14.80;99.90
13203;DHT22;6666;51.626;7.530;2022-09-17T12:41:51;14.80;99.90
13203;DHT22;6666;51.626;7.530;2022-09-17T12:47:58;14.90;99.90
13203;DHT22;6666;51.626;7.530;2022-09-17T12:50:41;15.00;99.90
13203;DHT22;6666;51.626;7.530;2022-09-17T12:53:21;14.90;99.90
13203;DHT22;6666;51.626;7.530;2022-09-17T12:56:09;14.70;99.90
13203;DHT22;6666;51.626;7.530;2022-09-17T12:58:54;14.60;99.90
13203;DHT22;6666;51.626;7.530;2022-09-17T13:01:29;14.40;99.90
13203;DHT22;6666;51.626;7.530;2022-09-17T13:04:22;13.30;99.90
13203;DHT22;6666;51.626;7.530;2022-09-17T13:13:29;12.60;99.90
13203;DHT22;6666;51.626;7.530;2022-09-17T13:16:06;12.70;99.90
13203;DHT22;6666;51.626;7.530;2022-09-17T13:18:51;12.80;99.90
13203;DHT22;6666;51.626;7.530;2022-09-17T13:21:48;12.80;99.90
13203;DHT22;6666;51.626;7.530;2022-09-17T13:24:19;12.80;99.90
13203;DHT22;6666;51.626;7.530;2022-09-17T13:26:51;12.70;99.90
13203;DHT22;6666;51.626;7.530;2022-09-17T13:32:44;12.90;99.90
13203;DHT22;6666;51.626;7.530;2022-09-17T13:35:51;13.00;99.90
13203;DHT22;6666;51.626;7.530;2022-09-17T13:38:21;12.90;99.90
13203;DHT22;6666;51.626;7.530;2022-09-17T13:40:50;13.10;99.90
13203;DHT22;6666;51.626;7.530;2022-09-17T13:43:21;13.10;99.90
13203;DHT22;6666;51.626;7.530;2022-09-17T13:46:25;12.80;99.90
13203;DHT22;6666;51.626;7.530;2022-09-17T13:48:58;12.90;99.90
13203;DHT22;6666;51.626;7.530;2022-09-17T13:51:51;13.00;99.90
13203;DHT22;6666;51.626;7.530;2022-09-17T13:54:21;12.90;99.90
13203;DHT22;6666;51.626;7.530;2022-09-17T13:57:10;12.70;99.90
13203;DHT22;6666;51.626;7.530;2022-09-17T13:59:53;12.90;99.90
13203;DHT22;6666;51.626;7.530;2022-09-17T14:02:36;13.10;99.90
13203;DHT22;6666;51.626;7.530;2022-09-17T14:05:28;13.30;99.90
13203;DHT22;6666;51.626;7.530;2022-09-17T14:08:24;13.50;99.90
13203;DHT22;6666;51.626;7.530;2022-09-17T14:10:59;13.50;99.90
13203;DHT22;6666;51.626;7.530;2022-09-17T14:13:48;13.50;99.90
13203;DHT22;6666;51.626;7.530;2022-09-17T14:16:32;13.50;99.90
13203;DHT22;6666;51.626;7.530;2022-09-17T14:19:28;13.50;99.90
13203;DHT22;6666;51.626;7.530;2022-09-17T14:22:02;13.40;99.90
13203;DHT22;6666;51.626;7.530;2022-09-17T14:24:47;13.60;99.90
13203;DHT22;6666;51.626;7.530;2022-09-17T14:27:35;13.80;99.90
13203;DHT22;6666;51.626;7.530;2022-09-17T14:30:15;13.90;99.90
13203;DHT22;6666;51.626;7.530;2022-09-17T14:32:51;14.00;99.90
13203;DHT22;6666;51.626;7.530;2022-09-17T14:35:23;14.10;99.90
13203;DHT22;6666;51.626;7.530;2022-09-17T14:37:56;13.90;99.90
13203;DHT22;6666;51.626;7.530;2022-09-17T14:40:27;13.80;99.90
13203;DHT22;6666;51.626;7.530;2022-09-17T14:42:56;13.50;99.90
13203;DHT22;6666;51.626;7.530;2022-09-17T14:45:27;12.80;99.90
13203;DHT22;6666;51.626;7.530;2022-09-17T14:48:19;12.30;99.90
13203;DHT22;6666;51.626;7.530;2022-09-17T14:50:47;12.30;99.90
13203;DHT22;6666;51.626;7.530;2022-09-17T14:53:17;12.30;99.90
13203;DHT22;6666;51.626;7.530;2022-09-17T14:55:48;12.20;99.90
13203;DHT22;6666;51.626;7.530;2022-09-17T14:58:28;12.10;99.90
13203;DHT22;6666;51.626;7.530;2022-09-17T15:00:58;12.00;99.90
13203;DHT22;6666;51.626;7.530;2022-09-17T15:03:27;12.20;99.90
13203;DHT22;6666;51.626;7.530;2022-09-17T15:05:55;12.10;99.90
13203;DHT22;6666;51.626;7.530;2022-09-17T15:08:25;12.20;99.90
13203;DHT22;6666;51.626;7.530;2022-09-17T15:10:59;12.20;99.90
13203;DHT22;6666;51.626;7.530;2022-09-17T15:13:29;12.20;99.90
13203;DHT22;6666;51.626;7.530;2022-09-17T15:16:00;12.30;99.90
13203;DHT22;6666;51.626;7.530;2022-09-17T15:18:35;12.40;99.90
13203;DHT22;6666;51.626;7.530;2022-09-17T15:21:10;12.40;99.90
13203;DHT22;6666;51.626;7.530;2022-09-17T15:23:39;12.40;99.90
13203;DHT22;6666;51.626;7.530;2022-09-17T15:26:11;12.40;99.90
13203;DHT22;6666;51.626;7.530;2022-09-17T15:28:42;12.50;99.90
13203;DHT22;6666;51.626;7.530;2022-09-17T15:31:15;12.50;99.90
13203;DHT22;6666;51.626;7.530;2022-09-17T15:33:45;12.60;99.90
13203;DHT22;6666;51.626;7.530;2022-09-17T15:36:19;12.50;99.90
13203;DHT22;6666;51.626;7.530;2022-09-17T15:38:49;12.50;99.90
13203;DHT22;6666;51.626;7.530;2022-09-17T15:41:37;12.60;99.90
13203;DHT22;6666;51.626;7.530;2022-09-17T15:44:10;12.70;99.90
13203;DHT22;6666;51.626;7.530;2022-09-17T15:50:13;13.10;99.90
13203;DHT22;6666;51.626;7.530;2022-09-17T15:52:41;13.20;99.90
13203;DHT22;6666;51.626;7.530;2022-09-17T15:55:30;13.20;99.90
13203;DHT22;6666;51.626;7.530;2022-09-17T15:58:03;13.20;99.90
13203;DHT22;6666;51.626;7.530;2022-09-17T16:00:32;13.20;99.90
13203;DHT22;6666;51.626;7.530;2022-09-17T16:04:06;13.10;99.90
13203;DHT22;6666;51.626;7.530;2022-09-17T16:06:36;13.10;99.90
13203;DHT22;6666;51.626;7.530;2022-09-17T16:09:40;13.10;99.90
13203;DHT22;6666;51.626;7.530;2022-09-17T16:12:12;13.10;99.90
13203;DHT22;6666;51.626;7.530;2022-09-17T16:14:47;13.00;99.90
13203;DHT22;6666;51.626;7.530;2022-09-17T16:17:30;12.90;99.90
13203;DHT22;6666;51.626;7.530;2022-09-17T16:20:08;13.00;99.90
13203;DHT22;6666;51.626;7.530;2022-09-17T16:22:36;13.00;99.90
13203;DHT22;6666;51.626;7.530;2022-09-17T16:25:06;12.90;99.90
13203;DHT22;6666;51.626;7.530;2022-09-17T16:27:42;12.80;99.90
13203;DHT22;6666;51.626;7.530;2022-09-17T16:30:16;12.70;99.90
13203;DHT22;6666;51.626;7.530;2022-09-17T16:32:44;12.70;99.90
13203;DHT22;6666;51.626;7.530;2022-09-17T16:35:14;12.60;99.90
13203;DHT22;6666;51.626;7.530;2022-09-17T16:37:46;12.60;99.90
13203;DHT22;6666;51.626;7.530;2022-09-17T16:40:15;12.50;99.90
13203;DHT22;6666;51.626;7.530;2022-09-17T16:42:44;12.50;99.90
13203;DHT22;6666;51.626;7.530;2022-09-17T16:45:14;12.50;99.90
13203;DHT22;6666;51.626;7.530;2022-09-17T16:47:43;12.40;99.90
13203;DHT22;6666;51.626;7.530;2022-09-17T16:50:13;12.40;99.90
13203;DHT22;6666;51.626;7.530;2022-09-17T16:52:42;12.40;99.90
13203;DHT22;6666;51.626;7.530;2022-09-17T16:55:12;12.40;99.90
13203;DHT22;6666;51.626;7.530;2022-09-17T16:57:40;12.30;99.90
13203;DHT22;6666;51.626;7.530;2022-09-17T17:00:12;12.20;99.90
13203;DHT22;6666;51.626;7.530;2022-09-17T17:02:43;12.20;99.90
13203;DHT22;6666;51.626;7.530;2022-09-17T17:05:11;12.20;99.90